Gauley Mills, West Virginia
Current Conditions -  °F | °C
As of 4:35 AM on Tuesday 21 Oct 2014 (Local Time) from KLWB Reporting Station
Overcast Overcast  
Wind Chill: 49°   Ceiling: 2600
Heat Index: 49°   Visibility: 10mi
Dew Point: 46°   Wind: 0mph
Humidity: 90%   Direction: NA
Pressure: 29.92"   Gusts: NA
Location:  38.3791°N, 80.587°W
Report Text: KLWB 210835Z AUTO 00000KT 10SM BKN026 BKN031 OVC090 09/08 A2992 RMK AO2 T00940078
Loading
Personal Weather Stations






























Interactive Weather Map
Tropical Storm Tracking
New forecast layout! Learn more

10-Day Weather Forecast

Advertisements
Track Severe Weather on mobile